sensor_id;sensor_type;location;lat;lon;timestamp;temperature;humidity
25504;DHT22;13410;52.114;5.718;2023-06-14T00:00:38;20.20;99.90
25504;DHT22;13410;52.114;5.718;2023-06-14T00:03:07;20.40;99.90
25504;DHT22;13410;52.114;5.718;2023-06-14T00:05:35;20.40;99.90
25504;DHT22;13410;52.114;5.718;2023-06-14T00:08:06;20.30;99.90
25504;DHT22;13410;52.114;5.718;2023-06-14T00:10:34;20.50;99.90
25504;DHT22;13410;52.114;5.718;2023-06-14T00:13:04;20.40;99.90
25504;DHT22;13410;52.114;5.718;2023-06-14T00:15:30;20.40;99.90
25504;DHT22;13410;52.114;5.718;2023-06-14T00:17:57;20.30;99.90
25504;DHT22;13410;52.114;5.718;2023-06-14T00:20:25;20.30;99.90
25504;DHT22;13410;52.114;5.718;2023-06-14T00:22:51;20.20;99.90
25504;DHT22;13410;52.114;5.718;2023-06-14T00:25:17;20.20;99.90
25504;DHT22;13410;52.114;5.718;2023-06-14T00:27:42;19.90;99.90
25504;DHT22;13410;52.114;5.718;2023-06-14T00:30:08;19.90;99.90
25504;DHT22;13410;52.114;5.718;2023-06-14T00:32:34;19.80;99.90
25504;DHT22;13410;52.114;5.718;2023-06-14T00:35:00;19.80;99.90
25504;DHT22;13410;52.114;5.718;2023-06-14T00:37:26;19.60;99.90
25504;DHT22;13410;52.114;5.718;2023-06-14T00:39:51;19.80;99.90
25504;DHT22;13410;52.114;5.718;2023-06-14T00:42:24;19.60;99.90
25504;DHT22;13410;52.114;5.718;2023-06-14T00:44:50;19.60;99.90
25504;DHT22;13410;52.114;5.718;2023-06-14T00:47:16;19.60;99.90
25504;DHT22;13410;52.114;5.718;2023-06-14T00:49:42;19.60;99.90
25504;DHT22;13410;52.114;5.718;2023-06-14T00:52:08;19.40;99.90
25504;DHT22;13410;52.114;5.718;2023-06-14T00:54:40;19.50;99.90
25504;DHT22;13410;52.114;5.718;2023-06-14T00:57:07;19.60;99.90
25504;DHT22;13410;52.114;5.718;2023-06-14T00:59:35;20.00;99.90
25504;DHT22;13410;52.114;5.718;2023-06-14T01:02:03;19.80;99.90
25504;DHT22;13410;52.114;5.718;2023-06-14T01:04:28;19.70;99.90
25504;DHT22;13410;52.114;5.718;2023-06-14T01:07:28;19.70;99.90
25504;DHT22;13410;52.114;5.718;2023-06-14T01:12:36;19.40;99.90
25504;DHT22;13410;52.114;5.718;2023-06-14T01:15:04;19.40;99.90
25504;DHT22;13410;52.114;5.718;2023-06-14T01:17:31;19.40;99.90
25504;DHT22;13410;52.114;5.718;2023-06-14T01:20:06;19.40;99.90
25504;DHT22;13410;52.114;5.718;2023-06-14T01:22:35;19.70;99.90
25504;DHT22;13410;52.114;5.718;2023-06-14T01:25:01;20.10;99.90
25504;DHT22;13410;52.114;5.718;2023-06-14T01:27:26;20.10;99.90
25504;DHT22;13410;52.114;5.718;2023-06-14T01:29:54;20.00;99.90
25504;DHT22;13410;52.114;5.718;2023-06-14T01:32:24;19.90;99.90
25504;DHT22;13410;52.114;5.718;2023-06-14T01:34:50;20.20;99.90
25504;DHT22;13410;52.114;5.718;2023-06-14T01:37:16;20.30;99.90
25504;DHT22;13410;52.114;5.718;2023-06-14T01:39:43;20.50;99.90
25504;DHT22;13410;52.114;5.718;2023-06-14T01:42:11;20.40;99.90
25504;DHT22;13410;52.114;5.718;2023-06-14T01:44:38;20.60;99.90
25504;DHT22;13410;52.114;5.718;2023-06-14T01:47:05;21.10;99.90
25504;DHT22;13410;52.114;5.718;2023-06-14T01:49:33;21.30;99.90
25504;DHT22;13410;52.114;5.718;2023-06-14T01:52:00;21.10;99.90
25504;DHT22;13410;52.114;5.718;2023-06-14T01:54:25;21.00;99.90
25504;DHT22;13410;52.114;5.718;2023-06-14T01:56:51;21.00;99.90
25504;DHT22;13410;52.114;5.718;2023-06-14T01:59:17;20.70;99.90
25504;DHT22;13410;52.114;5.718;2023-06-14T02:01:42;20.70;99.90
25504;DHT22;13410;52.114;5.718;2023-06-14T02:04:08;21.00;99.90
25504;DHT22;13410;52.114;5.718;2023-06-14T02:06:34;21.20;99.90
25504;DHT22;13410;52.114;5.718;2023-06-14T02:09:01;20.80;99.90
25504;DHT22;13410;52.114;5.718;2023-06-14T02:11:28;20.70;99.90
25504;DHT22;13410;52.114;5.718;2023-06-14T02:13:54;20.70;99.90
25504;DHT22;13410;52.114;5.718;2023-06-14T02:16:20;20.50;99.90
25504;DHT22;13410;52.114;5.718;2023-06-14T02:18:47;20.40;99.90
25504;DHT22;13410;52.114;5.718;2023-06-14T02:21:13;20.60;99.90
25504;DHT22;13410;52.114;5.718;2023-06-14T02:23:39;20.10;99.90
25504;DHT22;13410;52.114;5.718;2023-06-14T02:26:05;19.90;99.90
25504;DHT22;13410;52.114;5.718;2023-06-14T02:28:31;20.20;99.90
25504;DHT22;13410;52.114;5.718;2023-06-14T02:30:56;20.30;99.90
25504;DHT22;13410;52.114;5.718;2023-06-14T02:33:22;20.00;99.90
25504;DHT22;13410;52.114;5.718;2023-06-14T02:35:47;19.70;99.90
25504;DHT22;13410;52.114;5.718;2023-06-14T02:38:13;19.60;99.90
25504;DHT22;13410;52.114;5.718;2023-06-14T02:40:39;19.90;99.90
25504;DHT22;13410;52.114;5.718;2023-06-14T02:43:06;20.20;99.90
25504;DHT22;13410;52.114;5.718;2023-06-14T02:45:31;20.10;99.90
25504;DHT22;13410;52.114;5.718;2023-06-14T02:47:57;20.10;99.90
25504;DHT22;13410;52.114;5.718;2023-06-14T02:50:22;19.70;99.90
25504;DHT22;13410;52.114;5.718;2023-06-14T02:52:49;19.90;99.90
25504;DHT22;13410;52.114;5.718;2023-06-14T02:55:14;20.30;99.90
25504;DHT22;13410;52.114;5.718;2023-06-14T02:57:40;20.50;99.90
25504;DHT22;13410;52.114;5.718;2023-06-14T03:00:08;20.60;99.90
25504;DHT22;13410;52.114;5.718;2023-06-14T03:02:38;20.50;99.90
25504;DHT22;13410;52.114;5.718;2023-06-14T03:05:04;20.80;99.90
25504;DHT22;13410;52.114;5.718;2023-06-14T03:07:31;20.70;99.90
25504;DHT22;13410;52.114;5.718;2023-06-14T03:09:58;20.90;99.90
25504;DHT22;13410;52.114;5.718;2023-06-14T03:12:23;20.70;99.90
25504;DHT22;13410;52.114;5.718;2023-06-14T03:14:49;20.50;99.90
25504;DHT22;13410;52.114;5.718;2023-06-14T03:17:16;20.40;99.90
25504;DHT22;13410;52.114;5.718;2023-06-14T03:19:42;20.60;99.90
25504;DHT22;13410;52.114;5.718;2023-06-14T03:22:08;20.30;99.90
25504;DHT22;13410;52.114;5.718;2023-06-14T03:24:34;20.40;99.90
25504;DHT22;13410;52.114;5.718;2023-06-14T03:27:02;20.50;99.90
25504;DHT22;13410;52.114;5.718;2023-06-14T03:29:27;20.40;99.90
25504;DHT22;13410;52.114;5.718;2023-06-14T03:32:01;20.50;99.90
25504;DHT22;13410;52.114;5.718;2023-06-14T03:34:26;20.50;99.90
25504;DHT22;13410;52.114;5.718;2023-06-14T03:36:52;20.80;99.90
25504;DHT22;13410;52.114;5.718;2023-06-14T03:39:18;20.80;99.90
25504;DHT22;13410;52.114;5.718;2023-06-14T03:41:44;20.90;99.90
25504;DHT22;13410;52.114;5.718;2023-06-14T03:44:09;20.40;99.90
25504;DHT22;13410;52.114;5.718;2023-06-14T03:46:35;20.00;99.90
25504;DHT22;13410;52.114;5.718;2023-06-14T03:49:00;20.30;99.90
25504;DHT22;13410;52.114;5.718;2023-06-14T03:51:28;20.40;99.90
25504;DHT22;13410;52.114;5.718;2023-06-14T03:53:54;20.30;99.90
25504;DHT22;13410;52.114;5.718;2023-06-14T03:56:21;20.60;99.90
25504;DHT22;13410;52.114;5.718;2023-06-14T03:58:46;21.10;99.90
25504;DHT22;13410;52.114;5.718;2023-06-14T04:01:12;21.60;99.90
25504;DHT22;13410;52.114;5.718;2023-06-14T04:03:38;21.80;99.90
25504;DHT22;13410;52.114;5.718;2023-06-14T04:06:05;22.10;99.90
25504;DHT22;13410;52.114;5.718;2023-06-14T04:08:31;22.20;99.90
25504;DHT22;13410;52.114;5.718;2023-06-14T04:10:57;22.70;99.90
25504;DHT22;13410;52.114;5.718;2023-06-14T04:13:22;23.30;99.90
25504;DHT22;13410;52.114;5.718;2023-06-14T04:15:48;23.40;99.90
25504;DHT22;13410;52.114;5.718;2023-06-14T04:18:14;24.10;99.90
25504;DHT22;13410;52.114;5.718;2023-06-14T04:20:39;24.10;99.90
25504;DHT22;13410;52.114;5.718;2023-06-14T04:23:17;24.00;99.90
25504;DHT22;13410;52.114;5.718;2023-06-14T04:25:47;24.40;99.90
25504;DHT22;13410;52.114;5.718;2023-06-14T04:28:13;23.40;99.90
25504;DHT22;13410;52.114;5.718;2023-06-14T04:30:41;23.10;99.90
25504;DHT22;13410;52.114;5.718;2023-06-14T04:33:07;23.50;99.90
25504;DHT22;13410;52.114;5.718;2023-06-14T04:35:33;23.70;99.90
25504;DHT22;13410;52.114;5.718;2023-06-14T04:38:01;23.40;99.90
25504;DHT22;13410;52.114;5.718;2023-06-14T04:40:27;23.60;99.90
25504;DHT22;13410;52.114;5.718;2023-06-14T04:42:52;23.10;99.90
25504;DHT22;13410;52.114;5.718;2023-06-14T04:45:18;23.00;99.90
25504;DHT22;13410;52.114;5.718;2023-06-14T04:47:43;22.60;99.90
25504;DHT22;13410;52.114;5.718;2023-06-14T04:50:10;22.40;99.90
25504;DHT22;13410;52.114;5.718;2023-06-14T04:52:36;22.30;99.90
25504;DHT22;13410;52.114;5.718;2023-06-14T04:55:03;22.00;99.90
25504;DHT22;13410;52.114;5.718;2023-06-14T04:57:28;21.90;99.90
25504;DHT22;13410;52.114;5.718;2023-06-14T04:59:54;22.00;99.90
25504;DHT22;13410;52.114;5.718;2023-06-14T05:02:24;22.10;99.90
25504;DHT22;13410;52.114;5.718;2023-06-14T05:04:51;22.50;99.90
25504;DHT22;13410;52.114;5.718;2023-06-14T05:07:16;22.40;99.90
25504;DHT22;13410;52.114;5.718;2023-06-14T05:09:42;22.30;99.90
25504;DHT22;13410;52.114;5.718;2023-06-14T05:12:08;22.60;99.90
25504;DHT22;13410;52.114;5.718;2023-06-14T05:14:34;23.30;99.90
25504;DHT22;13410;52.114;5.718;2023-06-14T05:17:00;23.40;99.90
25504;DHT22;13410;52.114;5.718;2023-06-14T05:19:25;23.90;99.90
25504;DHT22;13410;52.114;5.718;2023-06-14T05:21:52;24.10;99.90
25504;DHT22;13410;52.114;5.718;2023-06-14T05:24:18;24.40;99.90
25504;DHT22;13410;52.114;5.718;2023-06-14T05:26:43;24.40;99.90
25504;DHT22;13410;52.114;5.718;2023-06-14T05:29:09;24.10;99.90
25504;DHT22;13410;52.114;5.718;2023-06-14T05:31:35;24.40;99.90
25504;DHT22;13410;52.114;5.718;2023-06-14T05:34:00;23.50;99.90
25504;DHT22;13410;52.114;5.718;2023-06-14T05:36:26;22.60;99.90
25504;DHT22;13410;52.114;5.718;2023-06-14T05:38:53;22.80;99.90
25504;DHT22;13410;52.114;5.718;2023-06-14T05:41:26;23.20;99.90
25504;DHT22;13410;52.114;5.718;2023-06-14T05:43:54;24.20;99.90
25504;DHT22;13410;52.114;5.718;2023-06-14T05:46:20;24.60;99.90
25504;DHT22;13410;52.114;5.718;2023-06-14T05:48:48;24.80;99.90
25504;DHT22;13410;52.114;5.718;2023-06-14T05:51:14;24.70;99.90
25504;DHT22;13410;52.114;5.718;2023-06-14T05:53:40;24.80;99.90
25504;DHT22;13410;52.114;5.718;2023-06-14T05:56:05;25.10;99.90
25504;DHT22;13410;52.114;5.718;2023-06-14T05:58:31;25.10;99.90
25504;DHT22;13410;52.114;5.718;2023-06-14T06:00:56;24.90;99.90
25504;DHT22;13410;52.114;5.718;2023-06-14T06:03:23;24.50;99.90
25504;DHT22;13410;52.114;5.718;2023-06-14T06:05:48;24.60;99.90
25504;DHT22;13410;52.114;5.718;2023-06-14T06:08:14;24.20;99.90
25504;DHT22;13410;52.114;5.718;2023-06-14T06:10:42;23.70;99.90
25504;DHT22;13410;52.114;5.718;2023-06-14T06:13:07;23.40;99.90
25504;DHT22;13410;52.114;5.718;2023-06-14T06:15:33;23.50;99.90
25504;DHT22;13410;52.114;5.718;2023-06-14T06:17:58;24.80;99.90
25504;DHT22;13410;52.114;5.718;2023-06-14T06:20:24;25.00;99.90
25504;DHT22;13410;52.114;5.718;2023-06-14T06:22:54;24.30;99.90
25504;DHT22;13410;52.114;5.718;2023-06-14T06:25:19;24.40;99.90
25504;DHT22;13410;52.114;5.718;2023-06-14T06:27:45;25.20;99.90
25504;DHT22;13410;52.114;5.718;2023-06-14T06:30:11;25.90;99.90
25504;DHT22;13410;52.114;5.718;2023-06-14T06:32:37;24.90;99.90
25504;DHT22;13410;52.114;5.718;2023-06-14T06:35:03;24.20;99.90
25504;DHT22;13410;52.114;5.718;2023-06-14T06:37:31;23.80;99.90
25504;DHT22;13410;52.114;5.718;2023-06-14T06:39:57;24.50;99.90
25504;DHT22;13410;52.114;5.718;2023-06-14T06:42:22;25.00;99.90
25504;DHT22;13410;52.114;5.718;2023-06-14T06:44:48;25.10;99.90
25504;DHT22;13410;52.114;5.718;2023-06-14T06:47:13;25.50;99.90
25504;DHT22;13410;52.114;5.718;2023-06-14T06:49:39;25.30;99.90
25504;DHT22;13410;52.114;5.718;2023-06-14T06:52:06;24.40;99.90
25504;DHT22;13410;52.114;5.718;2023-06-14T06:54:33;24.50;99.90
25504;DHT22;13410;52.114;5.718;2023-06-14T06:56:59;23.70;99.90
25504;DHT22;13410;52.114;5.718;2023-06-14T06:59:24;24.20;99.90
25504;DHT22;13410;52.114;5.718;2023-06-14T07:01:50;24.70;99.90
25504;DHT22;13410;52.114;5.718;2023-06-14T07:04:16;26.00;99.90
25504;DHT22;13410;52.114;5.718;2023-06-14T07:06:42;26.00;99.90
25504;DHT22;13410;52.114;5.718;2023-06-14T07:09:08;25.80;99.90
25504;DHT22;13410;52.114;5.718;2023-06-14T07:11:38;25.50;99.90
25504;DHT22;13410;52.114;5.718;2023-06-14T07:14:04;26.10;99.90
25504;DHT22;13410;52.114;5.718;2023-06-14T07:16:29;26.00;99.90
25504;DHT22;13410;52.114;5.718;2023-06-14T07:18:56;26.50;99.90
25504;DHT22;13410;52.114;5.718;2023-06-14T07:21:22;25.30;99.90
25504;DHT22;13410;52.114;5.718;2023-06-14T07:23:47;24.60;99.90
25504;DHT22;13410;52.114;5.718;2023-06-14T07:26:13;24.30;99.90
25504;DHT22;13410;52.114;5.718;2023-06-14T07:28:39;24.10;99.90
25504;DHT22;13410;52.114;5.718;2023-06-14T07:31:05;24.70;99.90
25504;DHT22;13410;52.114;5.718;2023-06-14T07:33:30;24.40;99.90
25504;DHT22;13410;52.114;5.718;2023-06-14T07:35:56;24.20;99.90
25504;DHT22;13410;52.114;5.718;2023-06-14T07:38:21;24.30;99.90
25504;DHT22;13410;52.114;5.718;2023-06-14T07:40:47;24.20;99.90
25504;DHT22;13410;52.114;5.718;2023-06-14T07:43:12;23.90;99.90
25504;DHT22;13410;52.114;5.718;2023-06-14T07:45:38;23.70;99.90
25504;DHT22;13410;52.114;5.718;2023-06-14T07:48:04;24.00;99.90
25504;DHT22;13410;52.114;5.718;2023-06-14T07:50:29;24.00;99.90
25504;DHT22;13410;52.114;5.718;2023-06-14T07:52:56;24.20;99.90
25504;DHT22;13410;52.114;5.718;2023-06-14T07:55:21;24.30;99.90
25504;DHT22;13410;52.114;5.718;2023-06-14T07:57:47;24.30;99.90
25504;DHT22;13410;52.114;5.718;2023-06-14T08:00:13;24.60;99.90
25504;DHT22;13410;52.114;5.718;2023-06-14T08:02:41;24.60;99.90
25504;DHT22;13410;52.114;5.718;2023-06-14T08:05:09;24.60;99.90
25504;DHT22;13410;52.114;5.718;2023-06-14T08:07:36;24.50;99.90
25504;DHT22;13410;52.114;5.718;2023-06-14T08:10:02;24.70;99.90
25504;DHT22;13410;52.114;5.718;2023-06-14T08:12:28;24.80;99.90
25504;DHT22;13410;52.114;5.718;2023-06-14T08:14:53;24.80;99.90
25504;DHT22;13410;52.114;5.718;2023-06-14T08:17:19;24.90;99.90
25504;DHT22;13410;52.114;5.718;2023-06-14T08:19:45;24.50;99.90
25504;DHT22;13410;52.114;5.718;2023-06-14T08:22:10;23.80;99.90
25504;DHT22;13410;52.114;5.718;2023-06-14T08:24:37;23.20;99.90
25504;DHT22;13410;52.114;5.718;2023-06-14T08:27:03;23.00;99.90
25504;DHT22;13410;52.114;5.718;2023-06-14T08:29:30;23.00;99.90
25504;DHT22;13410;52.114;5.718;2023-06-14T08:31:56;23.10;99.90
25504;DHT22;13410;52.114;5.718;2023-06-14T08:34:22;23.30;99.90
25504;DHT22;13410;52.114;5.718;2023-06-14T08:36:51;24.00;99.90
25504;DHT22;13410;52.114;5.718;2023-06-14T08:39:17;24.00;99.90
25504;DHT22;13410;52.114;5.718;2023-06-14T08:41:46;23.70;99.90
25504;DHT22;13410;52.114;5.718;2023-06-14T08:44:16;23.80;99.90
25504;DHT22;13410;52.114;5.718;2023-06-14T08:46:42;24.30;99.90
25504;DHT22;13410;52.114;5.718;2023-06-14T08:49:08;24.60;99.90
25504;DHT22;13410;52.114;5.718;2023-06-14T08:51:36;25.20;99.90
25504;DHT22;13410;52.114;5.718;2023-06-14T08:54:03;24.80;99.90
25504;DHT22;13410;52.114;5.718;2023-06-14T08:56:30;24.50;99.90
25504;DHT22;13410;52.114;5.718;2023-06-14T08:58:59;24.80;99.90
25504;DHT22;13410;52.114;5.718;2023-06-14T09:01:28;24.90;99.90
25504;DHT22;13410;52.114;5.718;2023-06-14T09:03:54;24.80;99.90
25504;DHT22;13410;52.114;5.718;2023-06-14T09:06:23;24.60;99.90
25504;DHT22;13410;52.114;5.718;2023-06-14T09:08:50;24.60;99.90
25504;DHT22;13410;52.114;5.718;2023-06-14T09:11:17;24.30;99.90
25504;DHT22;13410;52.114;5.718;2023-06-14T09:13:45;24.70;99.90
25504;DHT22;13410;52.114;5.718;2023-06-14T09:16:11;25.40;99.90
25504;DHT22;13410;52.114;5.718;2023-06-14T09:18:44;25.00;99.90
25504;DHT22;13410;52.114;5.718;2023-06-14T09:21:14;24.60;99.90
25504;DHT22;13410;52.114;5.718;2023-06-14T09:23:40;24.30;99.90
25504;DHT22;13410;52.114;5.718;2023-06-14T09:26:11;24.20;99.90
25504;DHT22;13410;52.114;5.718;2023-06-14T09:28:44;24.40;99.90
25504;DHT22;13410;52.114;5.718;2023-06-14T09:31:14;24.60;99.90
25504;DHT22;13410;52.114;5.718;2023-06-14T09:33:42;24.40;99.90
25504;DHT22;13410;52.114;5.718;2023-06-14T09:36:25;24.50;99.90
25504;DHT22;13410;52.114;5.718;2023-06-14T09:39:00;24.00;99.90
25504;DHT22;13410;52.114;5.718;2023-06-14T09:43:59;24.20;99.90
25504;DHT22;13410;52.114;5.718;2023-06-14T09:46:29;24.70;99.90
25504;DHT22;13410;52.114;5.718;2023-06-14T09:48:56;24.50;99.90
25504;DHT22;13410;52.114;5.718;2023-06-14T09:51:23;24.40;99.90
25504;DHT22;13410;52.114;5.718;2023-06-14T09:53:49;24.40;99.90
25504;DHT22;13410;52.114;5.718;2023-06-14T09:56:23;24.60;99.90
25504;DHT22;13410;52.114;5.718;2023-06-14T09:58:54;24.50;99.90
25504;DHT22;13410;52.114;5.718;2023-06-14T10:01:21;24.50;99.90
25504;DHT22;13410;52.114;5.718;2023-06-14T10:03:50;24.50;99.90
25504;DHT22;13410;52.114;5.718;2023-06-14T10:06:20;24.70;99.90
25504;DHT22;13410;52.114;5.718;2023-06-14T10:08:50;24.50;99.90
25504;DHT22;13410;52.114;5.718;2023-06-14T10:11:17;24.70;99.90
25504;DHT22;13410;52.114;5.718;2023-06-14T10:13:43;24.40;99.90
25504;DHT22;13410;52.114;5.718;2023-06-14T10:18:49;23.80;99.90
25504;DHT22;13410;52.114;5.718;2023-06-14T10:21:36;24.00;99.90
25504;DHT22;13410;52.114;5.718;2023-06-14T10:24:06;24.20;99.90
25504;DHT22;13410;52.114;5.718;2023-06-14T10:26:33;24.30;99.90
25504;DHT22;13410;52.114;5.718;2023-06-14T10:29:09;24.80;99.90
25504;DHT22;13410;52.114;5.718;2023-06-14T10:31:42;24.80;99.90
25504;DHT22;13410;52.114;5.718;2023-06-14T10:34:08;24.80;99.90
25504;DHT22;13410;52.114;5.718;2023-06-14T10:36:34;24.80;99.90
25504;DHT22;13410;52.114;5.718;2023-06-14T10:39:19;24.50;99.90
25504;DHT22;13410;52.114;5.718;2023-06-14T10:41:54;24.70;99.90
25504;DHT22;13410;52.114;5.718;2023-06-14T10:46:49;24.60;99.90
25504;DHT22;13410;52.114;5.718;2023-06-14T10:49:19;24.00;99.80
25504;DHT22;13410;52.114;5.718;2023-06-14T10:51:49;23.70;99.90
25504;DHT22;13410;52.114;5.718;2023-06-14T10:54:16;24.00;99.90
25504;DHT22;13410;52.114;5.718;2023-06-14T10:56:52;24.10;99.90
25504;DHT22;13410;52.114;5.718;2023-06-14T10:59:19;24.20;99.90
25504;DHT22;13410;52.114;5.718;2023-06-14T11:10:39;24.90;99.90
25504;DHT22;13410;52.114;5.718;2023-06-14T11:13:07;25.00;99.90
25504;DHT22;13410;52.114;5.718;2023-06-14T11:15:34;25.10;99.90
25504;DHT22;13410;52.114;5.718;2023-06-14T11:18:01;25.20;99.90
25504;DHT22;13410;52.114;5.718;2023-06-14T11:20:32;25.30;99.90
25504;DHT22;13410;52.114;5.718;2023-06-14T11:22:58;25.10;99.80
25504;DHT22;13410;52.114;5.718;2023-06-14T11:25:26;24.30;99.90
25504;DHT22;13410;52.114;5.718;2023-06-14T11:27:53;24.50;99.90
25504;DHT22;13410;52.114;5.718;2023-06-14T11:30:19;24.40;99.90
25504;DHT22;13410;52.114;5.718;2023-06-14T11:32:49;24.70;99.90
25504;DHT22;13410;52.114;5.718;2023-06-14T11:35:16;24.80;99.90
25504;DHT22;13410;52.114;5.718;2023-06-14T11:37:43;25.00;99.90
25504;DHT22;13410;52.114;5.718;2023-06-14T11:40:13;25.00;99.90
25504;DHT22;13410;52.114;5.718;2023-06-14T11:42:40;25.40;99.90
25504;DHT22;13410;52.114;5.718;2023-06-14T11:45:12;25.10;99.90
25504;DHT22;13410;52.114;5.718;2023-06-14T11:47:39;25.30;99.90
25504;DHT22;13410;52.114;5.718;2023-06-14T11:50:06;25.30;99.90
25504;DHT22;13410;52.114;5.718;2023-06-14T11:52:33;25.30;99.90
25504;DHT22;13410;52.114;5.718;2023-06-14T11:54:59;25.10;99.90
25504;DHT22;13410;52.114;5.718;2023-06-14T11:57:25;25.20;99.90
25504;DHT22;13410;52.114;5.718;2023-06-14T11:59:51;25.70;99.90
25504;DHT22;13410;52.114;5.718;2023-06-14T12:02:18;25.30;99.90
25504;DHT22;13410;52.114;5.718;2023-06-14T12:04:46;25.30;99.90
25504;DHT22;13410;52.114;5.718;2023-06-14T12:07:16;25.00;99.90
25504;DHT22;13410;52.114;5.718;2023-06-14T12:10:03;25.20;99.90
25504;DHT22;13410;52.114;5.718;2023-06-14T12:12:35;25.30;99.90
25504;DHT22;13410;52.114;5.718;2023-06-14T12:15:03;25.10;99.90
25504;DHT22;13410;52.114;5.718;2023-06-14T12:17:34;25.60;99.90
25504;DHT22;13410;52.114;5.718;2023-06-14T12:20:05;26.30;99.90
25504;DHT22;13410;52.114;5.718;2023-06-14T12:22:33;26.60;99.90
25504;DHT22;13410;52.114;5.718;2023-06-14T12:24:59;26.70;99.90
25504;DHT22;13410;52.114;5.718;2023-06-14T12:27:25;26.70;99.90
25504;DHT22;13410;52.114;5.718;2023-06-14T12:30:01;26.90;99.90
25504;DHT22;13410;52.114;5.718;2023-06-14T12:32:28;27.00;99.90
25504;DHT22;13410;52.114;5.718;2023-06-14T12:34:54;27.10;99.90
25504;DHT22;13410;52.114;5.718;2023-06-14T12:37:19;27.30;99.90
25504;DHT22;13410;52.114;5.718;2023-06-14T12:39:45;27.30;99.90
25504;DHT22;13410;52.114;5.718;2023-06-14T12:42:11;27.40;99.90
25504;DHT22;13410;52.114;5.718;2023-06-14T12:44:38;27.40;99.90
25504;DHT22;13410;52.114;5.718;2023-06-14T12:47:09;27.40;99.90
25504;DHT22;13410;52.114;5.718;2023-06-14T12:49:34;27.50;99.90
25504;DHT22;13410;52.114;5.718;2023-06-14T12:52:00;27.80;99.90
25504;DHT22;13410;52.114;5.718;2023-06-14T12:54:26;27.80;99.90
25504;DHT22;13410;52.114;5.718;2023-06-14T12:56:52;28.00;99.90
25504;DHT22;13410;52.114;5.718;2023-06-14T12:59:18;28.20;99.90
25504;DHT22;13410;52.114;5.718;2023-06-14T13:01:44;28.20;99.50
25504;DHT22;13410;52.114;5.718;2023-06-14T13:04:10;28.00;99.40
25504;DHT22;13410;52.114;5.718;2023-06-14T13:06:36;28.00;99.60
25504;DHT22;13410;52.114;5.718;2023-06-14T13:09:02;27.90;99.70
25504;DHT22;13410;52.114;5.718;2023-06-14T13:11:29;27.90;99.80
25504;DHT22;13410;52.114;5.718;2023-06-14T13:13:55;27.90;99.90
25504;DHT22;13410;52.114;5.718;2023-06-14T13:16:20;27.80;99.90
25504;DHT22;13410;52.114;5.718;2023-06-14T13:18:46;27.80;99.90
25504;DHT22;13410;52.114;5.718;2023-06-14T13:21:11;27.70;99.90
25504;DHT22;13410;52.114;5.718;2023-06-14T13:23:37;27.80;99.90
25504;DHT22;13410;52.114;5.718;2023-06-14T13:26:03;27.90;99.90
25504;DHT22;13410;52.114;5.718;2023-06-14T13:28:28;27.90;99.90
25504;DHT22;13410;52.114;5.718;2023-06-14T13:30:54;28.00;99.90
25504;DHT22;13410;52.114;5.718;2023-06-14T13:33:21;28.20;99.90
25504;DHT22;13410;52.114;5.718;2023-06-14T13:35:47;28.20;98.90
25504;DHT22;13410;52.114;5.718;2023-06-14T13:38:14;28.00;98.50
25504;DHT22;13410;52.114;5.718;2023-06-14T13:40:40;27.80;98.50
25504;DHT22;13410;52.114;5.718;2023-06-14T13:43:06;27.70;98.80
25504;DHT22;13410;52.114;5.718;2023-06-14T13:45:32;27.40;99.10
25504;DHT22;13410;52.114;5.718;2023-06-14T13:47:57;27.50;99.40
25504;DHT22;13410;52.114;5.718;2023-06-14T13:50:23;27.80;99.50
25504;DHT22;13410;52.114;5.718;2023-06-14T13:52:49;28.00;98.90
25504;DHT22;13410;52.114;5.718;2023-06-14T13:55:14;28.20;99.30
25504;DHT22;13410;52.114;5.718;2023-06-14T13:57:40;27.90;99.20
25504;DHT22;13410;52.114;5.718;2023-06-14T14:00:06;27.70;99.30
25504;DHT22;13410;52.114;5.718;2023-06-14T14:02:32;27.70;99.50
25504;DHT22;13410;52.114;5.718;2023-06-14T14:04:57;28.00;99.70
25504;DHT22;13410;52.114;5.718;2023-06-14T14:07:23;28.00;99.50
25504;DHT22;13410;52.114;5.718;2023-06-14T14:09:49;27.90;99.00
25504;DHT22;13410;52.114;5.718;2023-06-14T14:12:14;27.60;99.40
25504;DHT22;13410;52.114;5.718;2023-06-14T14:14:40;27.60;99.20
25504;DHT22;13410;52.114;5.718;2023-06-14T14:17:06;27.50;99.00
25504;DHT22;13410;52.114;5.718;2023-06-14T14:19:32;27.50;98.80
25504;DHT22;13410;52.114;5.718;2023-06-14T14:22:03;27.70;98.80
25504;DHT22;13410;52.114;5.718;2023-06-14T14:24:32;28.00;99.10
25504;DHT22;13410;52.114;5.718;2023-06-14T14:26:57;28.20;99.50
25504;DHT22;13410;52.114;5.718;2023-06-14T14:29:28;28.20;99.20
25504;DHT22;13410;52.114;5.718;2023-06-14T14:31:57;28.10;99.20
25504;DHT22;13410;52.114;5.718;2023-06-14T14:34:24;27.90;99.20
25504;DHT22;13410;52.114;5.718;2023-06-14T14:36:57;28.20;99.20
25504;DHT22;13410;52.114;5.718;2023-06-14T14:46:52;28.20;99.90
25504;DHT22;13410;52.114;5.718;2023-06-14T14:49:41;28.70;99.90
25504;DHT22;13410;52.114;5.718;2023-06-14T14:52:13;28.60;99.90
25504;DHT22;13410;52.114;5.718;2023-06-14T14:54:57;28.80;99.60
25504;DHT22;13410;52.114;5.718;2023-06-14T15:00:11;28.80;99.60
25504;DHT22;13410;52.114;5.718;2023-06-14T15:02:39;29.00;99.60
25504;DHT22;13410;52.114;5.718;2023-06-14T15:05:07;28.90;99.60
25504;DHT22;13410;52.114;5.718;2023-06-14T15:07:36;28.70;99.50
25504;DHT22;13410;52.114;5.718;2023-06-14T15:10:02;28.60;99.70
25504;DHT22;13410;52.114;5.718;2023-06-14T15:12:28;28.30;99.70
25504;DHT22;13410;52.114;5.718;2023-06-14T15:14:53;28.10;99.90
25504;DHT22;13410;52.114;5.718;2023-06-14T15:17:20;27.90;99.60
25504;DHT22;13410;52.114;5.718;2023-06-14T15:19:47;28.10;99.90
25504;DHT22;13410;52.114;5.718;2023-06-14T15:22:13;28.20;99.90
25504;DHT22;13410;52.114;5.718;2023-06-14T15:24:40;28.30;99.80
25504;DHT22;13410;52.114;5.718;2023-06-14T15:27:06;28.10;99.90
25504;DHT22;13410;52.114;5.718;2023-06-14T15:29:32;28.00;99.80
25504;DHT22;13410;52.114;5.718;2023-06-14T15:31:58;28.00;99.80
25504;DHT22;13410;52.114;5.718;2023-06-14T15:34:24;28.30;99.60
25504;DHT22;13410;52.114;5.718;2023-06-14T15:36:49;28.40;99.80
25504;DHT22;13410;52.114;5.718;2023-06-14T15:39:15;28.30;99.40
25504;DHT22;13410;52.114;5.718;2023-06-14T15:41:41;28.50;99.60
25504;DHT22;13410;52.114;5.718;2023-06-14T15:44:07;28.40;99.40
25504;DHT22;13410;52.114;5.718;2023-06-14T15:46:36;28.30;99.90
25504;DHT22;13410;52.114;5.718;2023-06-14T15:52:38;28.50;99.90
25504;DHT22;13410;52.114;5.718;2023-06-14T15:55:03;28.50;99.90
25504;DHT22;13410;52.114;5.718;2023-06-14T15:57:30;28.50;99.50
25504;DHT22;13410;52.114;5.718;2023-06-14T15:59:55;28.40;99.10
25504;DHT22;13410;52.114;5.718;2023-06-14T16:02:21;28.50;99.40